sensor_id;sensor_type;location;lat;lon;timestamp;P1;durP1;ratioP1;P2;durP2;ratioP2
18263;SDS011;9258;48.668;9.172;2022-09-02T00:00:15;3.70;;;2.85;;
18263;SDS011;9258;48.668;9.172;2022-09-02T00:03:20;3.25;;;2.95;;
18263;SDS011;9258;48.668;9.172;2022-09-02T00:06:22;5.90;;;3.10;;
18263;SDS011;9258;48.668;9.172;2022-09-02T00:09:24;3.83;;;3.00;;
18263;SDS011;9258;48.668;9.172;2022-09-02T00:12:26;4.82;;;3.22;;
18263;SDS011;9258;48.668;9.172;2022-09-02T00:15:28;3.30;;;3.00;;
18263;SDS011;9258;48.668;9.172;2022-09-02T00:18:30;3.63;;;3.15;;
18263;SDS011;9258;48.668;9.172;2022-09-02T00:21:33;3.00;;;2.78;;
18263;SDS011;9258;48.668;9.172;2022-09-02T00:24:35;2.92;;;2.72;;
18263;SDS011;9258;48.668;9.172;2022-09-02T00:27:37;3.50;;;2.90;;
18263;SDS011;9258;48.668;9.172;2022-09-02T00:30:39;3.97;;;3.30;;
18263;SDS011;9258;48.668;9.172;2022-09-02T00:33:43;3.67;;;3.38;;
18263;SDS011;9258;48.668;9.172;2022-09-02T00:36:44;3.95;;;3.10;;
18263;SDS011;9258;48.668;9.172;2022-09-02T00:39:46;5.38;;;3.47;;
18263;SDS011;9258;48.668;9.172;2022-09-02T00:42:47;4.32;;;3.20;;
18263;SDS011;9258;48.668;9.172;2022-09-02T00:45:50;3.90;;;3.50;;
18263;SDS011;9258;48.668;9.172;2022-09-02T00:48:55;3.22;;;2.92;;
18263;SDS011;9258;48.668;9.172;2022-09-02T00:51:59;3.45;;;3.10;;
18263;SDS011;9258;48.668;9.172;2022-09-02T00:55:05;6.43;;;3.28;;
18263;SDS011;9258;48.668;9.172;2022-09-02T00:58:13;3.30;;;3.00;;
18263;SDS011;9258;48.668;9.172;2022-09-02T01:01:17;4.43;;;3.47;;
18263;SDS011;9258;48.668;9.172;2022-09-02T01:04:22;3.40;;;3.10;;
18263;SDS011;9258;48.668;9.172;2022-09-02T01:07:24;3.70;;;3.20;;
18263;SDS011;9258;48.668;9.172;2022-09-02T01:10:30;3.67;;;2.92;;
18263;SDS011;9258;48.668;9.172;2022-09-02T01:13:35;3.38;;;2.80;;
18263;SDS011;9258;48.668;9.172;2022-09-02T01:16:43;3.35;;;2.92;;
18263;SDS011;9258;48.668;9.172;2022-09-02T01:19:49;6.32;;;3.33;;
18263;SDS011;9258;48.668;9.172;2022-09-02T01:22:56;4.75;;;3.10;;
18263;SDS011;9258;48.668;9.172;2022-09-02T01:25:58;5.05;;;3.10;;
18263;SDS011;9258;48.668;9.172;2022-09-02T01:28:59;3.85;;;2.70;;
18263;SDS011;9258;48.668;9.172;2022-09-02T01:32:01;3.60;;;3.00;;
18263;SDS011;9258;48.668;9.172;2022-09-02T01:35:04;3.53;;;2.53;;
18263;SDS011;9258;48.668;9.172;2022-09-02T01:38:08;3.10;;;2.80;;
18263;SDS011;9258;48.668;9.172;2022-09-02T01:41:10;2.60;;;2.40;;
18263;SDS011;9258;48.668;9.172;2022-09-02T01:44:11;3.80;;;2.60;;
18263;SDS011;9258;48.668;9.172;2022-09-02T01:47:16;2.50;;;2.30;;
18263;SDS011;9258;48.668;9.172;2022-09-02T01:50:19;2.80;;;2.40;;
18263;SDS011;9258;48.668;9.172;2022-09-02T01:53:23;3.88;;;2.30;;
18263;SDS011;9258;48.668;9.172;2022-09-02T01:56:25;3.15;;;2.53;;
18263;SDS011;9258;48.668;9.172;2022-09-02T01:59:26;2.50;;;2.30;;
18263;SDS011;9258;48.668;9.172;2022-09-02T02:02:28;2.55;;;2.35;;
18263;SDS011;9258;48.668;9.172;2022-09-02T02:05:30;2.65;;;2.45;;
18263;SDS011;9258;48.668;9.172;2022-09-02T02:08:33;2.53;;;2.33;;
18263;SDS011;9258;48.668;9.172;2022-09-02T02:11:35;2.40;;;2.20;;
18263;SDS011;9258;48.668;9.172;2022-09-02T02:14:37;2.47;;;2.28;;
18263;SDS011;9258;48.668;9.172;2022-09-02T02:17:38;4.70;;;2.38;;
18263;SDS011;9258;48.668;9.172;2022-09-02T02:20:40;2.35;;;2.15;;
18263;SDS011;9258;48.668;9.172;2022-09-02T02:23:43;3.05;;;2.60;;
18263;SDS011;9258;48.668;9.172;2022-09-02T02:26:45;2.47;;;2.28;;
18263;SDS011;9258;48.668;9.172;2022-09-02T02:29:47;2.70;;;2.47;;
18263;SDS011;9258;48.668;9.172;2022-09-02T02:32:49;2.78;;;2.47;;
18263;SDS011;9258;48.668;9.172;2022-09-02T02:35:51;4.20;;;2.55;;
18263;SDS011;9258;48.668;9.172;2022-09-02T02:38:54;4.75;;;2.53;;
18263;SDS011;9258;48.668;9.172;2022-09-02T02:41:55;2.40;;;2.20;;
18263;SDS011;9258;48.668;9.172;2022-09-02T02:44:57;2.63;;;2.40;;
18263;SDS011;9258;48.668;9.172;2022-09-02T02:47:58;5.70;;;2.50;;
18263;SDS011;9258;48.668;9.172;2022-09-02T02:51:00;2.58;;;2.22;;
18263;SDS011;9258;48.668;9.172;2022-09-02T02:54:03;2.33;;;2.08;;
18263;SDS011;9258;48.668;9.172;2022-09-02T02:57:06;2.47;;;2.28;;
18263;SDS011;9258;48.668;9.172;2022-09-02T03:00:10;3.03;;;2.50;;
18263;SDS011;9258;48.668;9.172;2022-09-02T03:03:14;2.90;;;2.60;;
18263;SDS011;9258;48.668;9.172;2022-09-02T03:06:18;2.85;;;2.35;;
18263;SDS011;9258;48.668;9.172;2022-09-02T03:09:21;5.03;;;2.65;;
18263;SDS011;9258;48.668;9.172;2022-09-02T03:12:23;2.50;;;2.30;;
18263;SDS011;9258;48.668;9.172;2022-09-02T03:15:25;3.75;;;2.15;;
18263;SDS011;9258;48.668;9.172;2022-09-02T03:18:27;2.97;;;2.25;;
18263;SDS011;9258;48.668;9.172;2022-09-02T03:21:29;2.53;;;2.30;;
18263;SDS011;9258;48.668;9.172;2022-09-02T03:24:32;2.60;;;2.40;;
18263;SDS011;9258;48.668;9.172;2022-09-02T03:27:33;2.35;;;2.15;;
18263;SDS011;9258;48.668;9.172;2022-09-02T03:30:37;2.47;;;2.20;;
18263;SDS011;9258;48.668;9.172;2022-09-02T03:33:40;2.63;;;2.15;;
18263;SDS011;9258;48.668;9.172;2022-09-02T03:36:41;2.40;;;2.20;;
18263;SDS011;9258;48.668;9.172;2022-09-02T03:39:45;2.63;;;2.22;;
18263;SDS011;9258;48.668;9.172;2022-09-02T03:42:47;2.33;;;2.00;;
18263;SDS011;9258;48.668;9.172;2022-09-02T03:45:49;2.60;;;2.08;;
18263;SDS011;9258;48.668;9.172;2022-09-02T03:48:50;4.47;;;2.65;;
18263;SDS011;9258;48.668;9.172;2022-09-02T03:51:52;3.20;;;2.63;;
18263;SDS011;9258;48.668;9.172;2022-09-02T03:54:55;3.20;;;2.50;;
18263;SDS011;9258;48.668;9.172;2022-09-02T03:57:56;2.72;;;2.30;;
18263;SDS011;9258;48.668;9.172;2022-09-02T04:00:58;3.45;;;2.83;;
18263;SDS011;9258;48.668;9.172;2022-09-02T04:04:00;2.65;;;2.40;;
18263;SDS011;9258;48.668;9.172;2022-09-02T04:07:02;5.30;;;2.80;;
18263;SDS011;9258;48.668;9.172;2022-09-02T04:10:06;3.90;;;2.78;;
18263;SDS011;9258;48.668;9.172;2022-09-02T04:13:08;3.47;;;2.75;;
18263;SDS011;9258;48.668;9.172;2022-09-02T04:16:11;3.30;;;2.70;;
18263;SDS011;9258;48.668;9.172;2022-09-02T04:19:13;5.28;;;2.40;;
18263;SDS011;9258;48.668;9.172;2022-09-02T04:22:15;2.60;;;2.40;;
18263;SDS011;9258;48.668;9.172;2022-09-02T04:25:18;3.28;;;2.75;;
18263;SDS011;9258;48.668;9.172;2022-09-02T04:28:19;2.85;;;2.38;;
18263;SDS011;9258;48.668;9.172;2022-09-02T04:31:21;2.50;;;2.30;;
18263;SDS011;9258;48.668;9.172;2022-09-02T04:34:25;3.10;;;2.30;;
18263;SDS011;9258;48.668;9.172;2022-09-02T04:37:26;2.83;;;2.53;;
18263;SDS011;9258;48.668;9.172;2022-09-02T04:40:29;2.50;;;2.20;;
18263;SDS011;9258;48.668;9.172;2022-09-02T04:43:31;2.60;;;2.40;;
18263;SDS011;9258;48.668;9.172;2022-09-02T04:46:32;3.20;;;2.60;;
18263;SDS011;9258;48.668;9.172;2022-09-02T04:49:34;4.15;;;2.53;;
18263;SDS011;9258;48.668;9.172;2022-09-02T04:52:35;3.80;;;2.50;;
18263;SDS011;9258;48.668;9.172;2022-09-02T04:55:39;2.55;;;2.35;;
18263;SDS011;9258;48.668;9.172;2022-09-02T04:58:41;3.42;;;2.40;;
18263;SDS011;9258;48.668;9.172;2022-09-02T05:01:43;2.97;;;2.47;;
18263;SDS011;9258;48.668;9.172;2022-09-02T05:04:46;3.47;;;2.75;;
18263;SDS011;9258;48.668;9.172;2022-09-02T05:07:48;2.97;;;2.20;;
18263;SDS011;9258;48.668;9.172;2022-09-02T05:10:51;2.40;;;2.20;;
18263;SDS011;9258;48.668;9.172;2022-09-02T05:13:53;2.83;;;2.13;;
18263;SDS011;9258;48.668;9.172;2022-09-02T05:16:56;3.33;;;2.40;;
18263;SDS011;9258;48.668;9.172;2022-09-02T05:19:59;4.55;;;2.30;;
18263;SDS011;9258;48.668;9.172;2022-09-02T05:23:00;3.42;;;2.47;;
18263;SDS011;9258;48.668;9.172;2022-09-02T05:26:04;4.75;;;2.60;;
18263;SDS011;9258;48.668;9.172;2022-09-02T05:29:06;2.78;;;2.53;;
18263;SDS011;9258;48.668;9.172;2022-09-02T05:32:08;2.60;;;2.38;;
18263;SDS011;9258;48.668;9.172;2022-09-02T05:35:10;6.15;;;2.53;;
18263;SDS011;9258;48.668;9.172;2022-09-02T05:38:11;2.88;;;2.50;;
18263;SDS011;9258;48.668;9.172;2022-09-02T05:41:16;2.78;;;2.38;;
18263;SDS011;9258;48.668;9.172;2022-09-02T05:44:22;3.08;;;2.78;;
18263;SDS011;9258;48.668;9.172;2022-09-02T05:47:23;4.03;;;2.88;;
18263;SDS011;9258;48.668;9.172;2022-09-02T05:50:25;4.88;;;2.60;;
18263;SDS011;9258;48.668;9.172;2022-09-02T05:53:26;5.55;;;2.38;;
18263;SDS011;9258;48.668;9.172;2022-09-02T05:56:30;3.75;;;2.40;;
18263;SDS011;9258;48.668;9.172;2022-09-02T05:59:32;2.65;;;2.45;;
18263;SDS011;9258;48.668;9.172;2022-09-02T06:02:38;5.30;;;2.40;;
18263;SDS011;9258;48.668;9.172;2022-09-02T06:05:39;5.00;;;2.72;;
18263;SDS011;9258;48.668;9.172;2022-09-02T06:08:41;3.47;;;2.55;;
18263;SDS011;9258;48.668;9.172;2022-09-02T06:11:44;3.63;;;2.60;;
18263;SDS011;9258;48.668;9.172;2022-09-02T06:14:48;4.93;;;2.50;;
18263;SDS011;9258;48.668;9.172;2022-09-02T06:17:50;4.05;;;2.58;;
18263;SDS011;9258;48.668;9.172;2022-09-02T06:20:51;5.30;;;2.50;;
18263;SDS011;9258;48.668;9.172;2022-09-02T06:23:52;3.67;;;2.70;;
18263;SDS011;9258;48.668;9.172;2022-09-02T06:26:57;2.70;;;2.20;;
18263;SDS011;9258;48.668;9.172;2022-09-02T06:30:00;4.18;;;2.33;;
18263;SDS011;9258;48.668;9.172;2022-09-02T06:33:02;5.50;;;2.42;;
18263;SDS011;9258;48.668;9.172;2022-09-02T06:36:05;5.28;;;2.72;;
18263;SDS011;9258;48.668;9.172;2022-09-02T06:39:08;2.55;;;2.35;;
18263;SDS011;9258;48.668;9.172;2022-09-02T06:42:13;3.00;;;2.22;;
18263;SDS011;9258;48.668;9.172;2022-09-02T06:45:14;7.22;;;2.80;;
18263;SDS011;9258;48.668;9.172;2022-09-02T06:48:16;2.15;;;1.75;;
18263;SDS011;9258;48.668;9.172;2022-09-02T06:51:18;3.03;;;2.00;;
18263;SDS011;9258;48.668;9.172;2022-09-02T06:54:22;4.38;;;2.03;;
18263;SDS011;9258;48.668;9.172;2022-09-02T06:57:25;2.90;;;1.90;;
18263;SDS011;9258;48.668;9.172;2022-09-02T07:00:27;4.35;;;2.45;;
18263;SDS011;9258;48.668;9.172;2022-09-02T07:03:30;3.17;;;2.40;;
18263;SDS011;9258;48.668;9.172;2022-09-02T07:06:50;4.10;;;2.35;;
18263;SDS011;9258;48.668;9.172;2022-09-02T07:09:55;3.78;;;2.10;;
18263;SDS011;9258;48.668;9.172;2022-09-02T07:12:57;3.75;;;2.30;;
18263;SDS011;9258;48.668;9.172;2022-09-02T07:15:59;2.80;;;2.03;;
18263;SDS011;9258;48.668;9.172;2022-09-02T07:19:01;3.28;;;2.17;;
18263;SDS011;9258;48.668;9.172;2022-09-02T07:22:04;2.97;;;2.30;;
18263;SDS011;9258;48.668;9.172;2022-09-02T07:25:06;5.05;;;2.22;;
18263;SDS011;9258;48.668;9.172;2022-09-02T07:28:10;4.05;;;2.20;;
18263;SDS011;9258;48.668;9.172;2022-09-02T07:31:12;2.10;;;1.90;;
18263;SDS011;9258;48.668;9.172;2022-09-02T07:34:15;4.28;;;2.22;;
18263;SDS011;9258;48.668;9.172;2022-09-02T07:37:17;2.30;;;1.83;;
18263;SDS011;9258;48.668;9.172;2022-09-02T07:40:19;3.15;;;2.20;;
18263;SDS011;9258;48.668;9.172;2022-09-02T07:43:22;2.60;;;2.00;;
18263;SDS011;9258;48.668;9.172;2022-09-02T07:46:23;2.85;;;1.90;;
18263;SDS011;9258;48.668;9.172;2022-09-02T07:49:25;3.85;;;2.15;;
18263;SDS011;9258;48.668;9.172;2022-09-02T07:52:27;4.28;;;2.42;;
18263;SDS011;9258;48.668;9.172;2022-09-02T07:55:29;3.30;;;2.00;;
18263;SDS011;9258;48.668;9.172;2022-09-02T07:58:32;3.88;;;1.92;;
18263;SDS011;9258;48.668;9.172;2022-09-02T08:01:33;3.53;;;1.85;;
18263;SDS011;9258;48.668;9.172;2022-09-02T08:04:35;2.13;;;1.60;;
18263;SDS011;9258;48.668;9.172;2022-09-02T08:07:37;7.68;;;2.08;;
18263;SDS011;9258;48.668;9.172;2022-09-02T08:10:38;2.67;;;1.67;;
18263;SDS011;9258;48.668;9.172;2022-09-02T08:13:42;3.17;;;1.90;;
18263;SDS011;9258;48.668;9.172;2022-09-02T08:16:45;2.75;;;1.67;;
18263;SDS011;9258;48.668;9.172;2022-09-02T08:19:47;1.90;;;1.63;;
18263;SDS011;9258;48.668;9.172;2022-09-02T08:22:49;4.85;;;1.50;;
18263;SDS011;9258;48.668;9.172;2022-09-02T08:25:50;3.25;;;1.63;;
18263;SDS011;9258;48.668;9.172;2022-09-02T08:28:53;3.95;;;1.85;;
18263;SDS011;9258;48.668;9.172;2022-09-02T08:31:55;2.80;;;2.00;;
18263;SDS011;9258;48.668;9.172;2022-09-02T08:34:56;2.03;;;1.83;;
18263;SDS011;9258;48.668;9.172;2022-09-02T08:37:58;3.35;;;2.03;;
18263;SDS011;9258;48.668;9.172;2022-09-02T08:41:00;2.85;;;1.70;;
18263;SDS011;9258;48.668;9.172;2022-09-02T08:44:03;3.42;;;1.50;;
18263;SDS011;9258;48.668;9.172;2022-09-02T08:47:08;1.98;;;1.40;;
18263;SDS011;9258;48.668;9.172;2022-09-02T08:50:13;3.42;;;1.52;;
18263;SDS011;9258;48.668;9.172;2022-09-02T08:53:17;1.40;;;1.30;;
18263;SDS011;9258;48.668;9.172;2022-09-02T08:56:26;2.00;;;1.25;;
18263;SDS011;9258;48.668;9.172;2022-09-02T08:59:29;3.20;;;1.33;;
18263;SDS011;9258;48.668;9.172;2022-09-02T09:02:33;3.88;;;1.60;;
18263;SDS011;9258;48.668;9.172;2022-09-02T09:05:46;2.80;;;1.48;;
18263;SDS011;9258;48.668;9.172;2022-09-02T09:08:54;1.75;;;1.40;;
18263;SDS011;9258;48.668;9.172;2022-09-02T09:12:01;3.65;;;1.30;;
18263;SDS011;9258;48.668;9.172;2022-09-02T09:15:12;2.17;;;1.45;;
18263;SDS011;9258;48.668;9.172;2022-09-02T09:18:21;4.80;;;1.65;;
18263;SDS011;9258;48.668;9.172;2022-09-02T09:21:31;2.40;;;1.45;;
18263;SDS011;9258;48.668;9.172;2022-09-02T09:24:34;1.67;;;1.58;;
18263;SDS011;9258;48.668;9.172;2022-09-02T09:27:38;4.15;;;1.92;;
18263;SDS011;9258;48.668;9.172;2022-09-02T09:30:41;2.65;;;1.50;;
18263;SDS011;9258;48.668;9.172;2022-09-02T09:33:55;2.38;;;1.55;;
18263;SDS011;9258;48.668;9.172;2022-09-02T09:36:58;2.65;;;1.40;;
18263;SDS011;9258;48.668;9.172;2022-09-02T09:39:59;2.22;;;1.33;;
18263;SDS011;9258;48.668;9.172;2022-09-02T09:43:10;8.38;;;1.63;;
18263;SDS011;9258;48.668;9.172;2022-09-02T09:46:23;1.75;;;1.30;;
18263;SDS011;9258;48.668;9.172;2022-09-02T09:49:27;3.22;;;1.33;;
18263;SDS011;9258;48.668;9.172;2022-09-02T09:52:29;2.33;;;1.50;;
18263;SDS011;9258;48.668;9.172;2022-09-02T09:55:31;1.60;;;1.30;;
18263;SDS011;9258;48.668;9.172;2022-09-02T09:58:32;3.65;;;1.20;;
18263;SDS011;9258;48.668;9.172;2022-09-02T10:01:37;1.52;;;1.13;;
18263;SDS011;9258;48.668;9.172;2022-09-02T10:04:39;5.38;;;1.42;;
18263;SDS011;9258;48.668;9.172;2022-09-02T10:07:41;3.53;;;1.20;;
18263;SDS011;9258;48.668;9.172;2022-09-02T10:10:54;2.78;;;1.42;;
18263;SDS011;9258;48.668;9.172;2022-09-02T10:13:58;3.65;;;1.20;;
18263;SDS011;9258;48.668;9.172;2022-09-02T10:17:05;1.30;;;1.20;;
18263;SDS011;9258;48.668;9.172;2022-09-02T10:20:17;3.53;;;1.05;;
18263;SDS011;9258;48.668;9.172;2022-09-02T10:23:31;1.55;;;1.30;;
18263;SDS011;9258;48.668;9.172;2022-09-02T10:26:42;1.40;;;1.30;;
18263;SDS011;9258;48.668;9.172;2022-09-02T10:29:51;1.30;;;1.20;;
18263;SDS011;9258;48.668;9.172;2022-09-02T10:33:03;2.05;;;1.35;;
18263;SDS011;9258;48.668;9.172;2022-09-02T10:36:23;1.50;;;1.33;;
18263;SDS011;9258;48.668;9.172;2022-09-02T10:39:33;1.40;;;1.30;;
18263;SDS011;9258;48.668;9.172;2022-09-02T10:42:51;2.15;;;1.20;;
18263;SDS011;9258;48.668;9.172;2022-09-02T10:46:01;3.03;;;1.50;;
18263;SDS011;9258;48.668;9.172;2022-09-02T10:49:11;2.58;;;1.20;;
18263;SDS011;9258;48.668;9.172;2022-09-02T10:56:02;1.85;;;1.35;;
18263;SDS011;9258;48.668;9.172;2022-09-02T10:59:09;1.50;;;1.40;;
18263;SDS011;9258;48.668;9.172;2022-09-02T11:02:14;2.05;;;1.70;;
18263;SDS011;9258;48.668;9.172;2022-09-02T11:05:22;1.50;;;1.33;;
18263;SDS011;9258;48.668;9.172;2022-09-02T11:08:30;1.50;;;1.40;;
18263;SDS011;9258;48.668;9.172;2022-09-02T11:11:38;1.77;;;1.40;;
18263;SDS011;9258;48.668;9.172;2022-09-02T11:14:47;2.97;;;1.40;;
18263;SDS011;9258;48.668;9.172;2022-09-02T11:17:57;2.35;;;1.20;;
18263;SDS011;9258;48.668;9.172;2022-09-02T11:21:07;1.73;;;1.30;;
18263;SDS011;9258;48.668;9.172;2022-09-02T11:24:19;1.50;;;1.30;;
18263;SDS011;9258;48.668;9.172;2022-09-02T11:27:28;1.75;;;1.40;;
18263;SDS011;9258;48.668;9.172;2022-09-02T11:30:36;3.00;;;1.45;;
18263;SDS011;9258;48.668;9.172;2022-09-02T11:33:45;3.20;;;1.70;;
18263;SDS011;9258;48.668;9.172;2022-09-02T11:36:54;2.85;;;1.50;;
18263;SDS011;9258;48.668;9.172;2022-09-02T11:39:57;2.60;;;1.48;;
18263;SDS011;9258;48.668;9.172;2022-09-02T11:43:13;1.70;;;1.60;;
18263;SDS011;9258;48.668;9.172;2022-09-02T11:46:26;1.88;;;1.55;;
18263;SDS011;9258;48.668;9.172;2022-09-02T11:53:16;5.88;;;1.55;;
18263;SDS011;9258;48.668;9.172;2022-09-02T11:56:24;1.70;;;1.60;;
18263;SDS011;9258;48.668;9.172;2022-09-02T12:03:10;1.92;;;1.70;;
18263;SDS011;9258;48.668;9.172;2022-09-02T12:06:19;5.40;;;2.33;;
18263;SDS011;9258;48.668;9.172;2022-09-02T12:13:01;2.50;;;1.90;;
18263;SDS011;9258;48.668;9.172;2022-09-02T12:19:53;5.05;;;2.92;;
18263;SDS011;9258;48.668;9.172;2022-09-02T12:22:54;2.95;;;2.00;;
18263;SDS011;9258;48.668;9.172;2022-09-02T12:25:59;2.63;;;1.73;;
18263;SDS011;9258;48.668;9.172;2022-09-02T12:29:09;12.43;;;4.82;;
18263;SDS011;9258;48.668;9.172;2022-09-02T12:32:11;12.68;;;3.78;;
18263;SDS011;9258;48.668;9.172;2022-09-02T12:35:34;3.05;;;1.90;;
18263;SDS011;9258;48.668;9.172;2022-09-02T12:38:51;2.53;;;1.70;;
18263;SDS011;9258;48.668;9.172;2022-09-02T12:41:55;2.10;;;1.90;;
18263;SDS011;9258;48.668;9.172;2022-09-02T12:45:04;2.60;;;1.70;;
18263;SDS011;9258;48.668;9.172;2022-09-02T12:48:10;2.95;;;1.75;;
18263;SDS011;9258;48.668;9.172;2022-09-02T12:54:49;2.28;;;1.55;;
18263;SDS011;9258;48.668;9.172;2022-09-02T12:57:53;2.80;;;1.70;;
18263;SDS011;9258;48.668;9.172;2022-09-02T13:01:08;2.28;;;1.70;;
18263;SDS011;9258;48.668;9.172;2022-09-02T13:04:20;3.60;;;1.80;;
18263;SDS011;9258;48.668;9.172;2022-09-02T13:07:50;1.80;;;1.60;;
18263;SDS011;9258;48.668;9.172;2022-09-02T13:18:54;1.30;;;1.20;;
18263;SDS011;9258;48.668;9.172;2022-09-02T13:22:24;3.22;;;1.77;;
18263;SDS011;9258;48.668;9.172;2022-09-02T13:26:05;2.35;;;1.60;;
18263;SDS011;9258;48.668;9.172;2022-09-02T13:29:40;1.67;;;1.58;;
18263;SDS011;9258;48.668;9.172;2022-09-02T13:33:15;1.90;;;1.48;;
18263;SDS011;9258;48.668;9.172;2022-09-02T13:36:22;2.45;;;1.40;;
18263;SDS011;9258;48.668;9.172;2022-09-02T13:39:27;2.47;;;1.50;;
18263;SDS011;9258;48.668;9.172;2022-09-02T13:42:29;1.65;;;1.35;;
18263;SDS011;9258;48.668;9.172;2022-09-02T13:45:32;2.53;;;1.90;;
18263;SDS011;9258;48.668;9.172;2022-09-02T13:48:36;1.75;;;1.38;;
18263;SDS011;9258;48.668;9.172;2022-09-02T13:51:41;2.38;;;1.50;;
18263;SDS011;9258;48.668;9.172;2022-09-02T13:54:44;1.55;;;1.45;;
18263;SDS011;9258;48.668;9.172;2022-09-02T13:57:51;2.17;;;1.50;;
18263;SDS011;9258;48.668;9.172;2022-09-02T14:00:58;2.55;;;1.13;;
18263;SDS011;9258;48.668;9.172;2022-09-02T14:04:17;1.95;;;1.30;;
18263;SDS011;9258;48.668;9.172;2022-09-02T14:07:21;2.17;;;1.42;;
18263;SDS011;9258;48.668;9.172;2022-09-02T14:10:27;1.70;;;1.27;;
18263;SDS011;9258;48.668;9.172;2022-09-02T14:13:30;1.67;;;1.05;;
18263;SDS011;9258;48.668;9.172;2022-09-02T14:16:32;2.15;;;1.20;;
18263;SDS011;9258;48.668;9.172;2022-09-02T14:19:35;1.52;;;1.13;;
18263;SDS011;9258;48.668;9.172;2022-09-02T14:22:38;1.38;;;1.20;;
18263;SDS011;9258;48.668;9.172;2022-09-02T14:25:47;2.75;;;1.05;;
18263;SDS011;9258;48.668;9.172;2022-09-02T14:28:50;4.10;;;1.40;;
18263;SDS011;9258;48.668;9.172;2022-09-02T14:32:03;1.42;;;1.00;;
18263;SDS011;9258;48.668;9.172;2022-09-02T14:35:17;1.50;;;1.27;;
18263;SDS011;9258;48.668;9.172;2022-09-02T14:38:22;3.33;;;1.42;;
18263;SDS011;9258;48.668;9.172;2022-09-02T14:41:25;3.45;;;1.10;;
18263;SDS011;9258;48.668;9.172;2022-09-02T14:44:28;1.20;;;1.08;;
18263;SDS011;9258;48.668;9.172;2022-09-02T14:47:34;2.63;;;1.15;;
18263;SDS011;9258;48.668;9.172;2022-09-02T14:50:38;3.00;;;1.00;;
18263;SDS011;9258;48.668;9.172;2022-09-02T14:53:41;1.38;;;1.05;;
18263;SDS011;9258;48.668;9.172;2022-09-02T14:56:45;1.42;;;1.10;;
18263;SDS011;9258;48.668;9.172;2022-09-02T14:59:49;2.92;;;1.15;;
18263;SDS011;9258;48.668;9.172;2022-09-02T15:02:52;1.27;;;1.17;;
18263;SDS011;9258;48.668;9.172;2022-09-02T15:05:59;3.03;;;1.05;;
18263;SDS011;9258;48.668;9.172;2022-09-02T15:09:02;2.88;;;1.33;;
18263;SDS011;9258;48.668;9.172;2022-09-02T15:12:03;3.67;;;1.42;;
18263;SDS011;9258;48.668;9.172;2022-09-02T15:15:05;1.73;;;1.00;;
18263;SDS011;9258;48.668;9.172;2022-09-02T15:18:07;1.70;;;0.82;;
18263;SDS011;9258;48.668;9.172;2022-09-02T15:21:09;2.00;;;1.10;;
18263;SDS011;9258;48.668;9.172;2022-09-02T15:24:11;2.35;;;1.85;;
18263;SDS011;9258;48.668;9.172;2022-09-02T15:27:13;2.17;;;1.38;;
18263;SDS011;9258;48.668;9.172;2022-09-02T15:30:15;1.33;;;1.23;;
18263;SDS011;9258;48.668;9.172;2022-09-02T15:33:17;0.95;;;0.88;;
18263;SDS011;9258;48.668;9.172;2022-09-02T15:36:18;1.42;;;1.00;;
18263;SDS011;9258;48.668;9.172;2022-09-02T15:39:21;2.65;;;0.85;;
18263;SDS011;9258;48.668;9.172;2022-09-02T15:42:23;2.03;;;1.00;;
18263;SDS011;9258;48.668;9.172;2022-09-02T15:45:25;2.38;;;0.80;;
18263;SDS011;9258;48.668;9.172;2022-09-02T15:48:27;1.50;;;1.00;;
18263;SDS011;9258;48.668;9.172;2022-09-02T15:51:32;1.55;;;0.98;;
18263;SDS011;9258;48.668;9.172;2022-09-02T15:54:35;2.35;;;1.27;;
18263;SDS011;9258;48.668;9.172;2022-09-02T15:57:37;2.03;;;1.40;;
18263;SDS011;9258;48.668;9.172;2022-09-02T16:00:39;4.20;;;1.08;;
18263;SDS011;9258;48.668;9.172;2022-09-02T16:03:41;1.58;;;0.93;;
18263;SDS011;9258;48.668;9.172;2022-09-02T16:06:42;1.08;;;0.77;;
18263;SDS011;9258;48.668;9.172;2022-09-02T16:09:48;2.33;;;1.00;;
18263;SDS011;9258;48.668;9.172;2022-09-02T16:12:49;3.35;;;1.55;;
18263;SDS011;9258;48.668;9.172;2022-09-02T16:15:53;1.10;;;0.90;;
18263;SDS011;9258;48.668;9.172;2022-09-02T16:19:00;3.15;;;1.10;;
18263;SDS011;9258;48.668;9.172;2022-09-02T16:22:03;2.38;;;0.90;;
18263;SDS011;9258;48.668;9.172;2022-09-02T16:25:06;0.95;;;0.95;;
18263;SDS011;9258;48.668;9.172;2022-09-02T16:28:08;1.30;;;0.95;;
18263;SDS011;9258;48.668;9.172;2022-09-02T16:31:12;1.58;;;1.00;;
18263;SDS011;9258;48.668;9.172;2022-09-02T16:34:16;2.08;;;0.90;;
18263;SDS011;9258;48.668;9.172;2022-09-02T16:37:19;1.05;;;0.95;;
18263;SDS011;9258;48.668;9.172;2022-09-02T16:40:22;0.95;;;0.80;;
18263;SDS011;9258;48.668;9.172;2022-09-02T16:43:23;3.28;;;0.88;;
18263;SDS011;9258;48.668;9.172;2022-09-02T16:46:26;3.28;;;1.13;;
18263;SDS011;9258;48.668;9.172;2022-09-02T16:49:28;1.70;;;1.20;;
18263;SDS011;9258;48.668;9.172;2022-09-02T16:52:30;2.30;;;1.58;;
18263;SDS011;9258;48.668;9.172;2022-09-02T16:55:39;3.03;;;1.40;;
18263;SDS011;9258;48.668;9.172;2022-09-02T16:58:41;1.38;;;1.00;;
18263;SDS011;9258;48.668;9.172;2022-09-02T17:01:43;4.20;;;1.30;;
18263;SDS011;9258;48.668;9.172;2022-09-02T17:04:45;3.45;;;1.00;;
18263;SDS011;9258;48.668;9.172;2022-09-02T17:07:46;2.28;;;0.98;;
18263;SDS011;9258;48.668;9.172;2022-09-02T17:10:49;0.93;;;0.70;;
18263;SDS011;9258;48.668;9.172;2022-09-02T17:13:51;1.77;;;0.85;;
18263;SDS011;9258;48.668;9.172;2022-09-02T17:16:54;4.32;;;0.90;;
18263;SDS011;9258;48.668;9.172;2022-09-02T17:19:56;1.30;;;1.00;;
18263;SDS011;9258;48.668;9.172;2022-09-02T17:22:57;3.45;;;1.10;;
18263;SDS011;9258;48.668;9.172;2022-09-02T17:26:01;2.30;;;0.93;;
18263;SDS011;9258;48.668;9.172;2022-09-02T17:29:05;3.15;;;1.35;;
18263;SDS011;9258;48.668;9.172;2022-09-02T17:32:08;1.60;;;1.00;;
18263;SDS011;9258;48.668;9.172;2022-09-02T17:35:10;1.55;;;1.02;;
18263;SDS011;9258;48.668;9.172;2022-09-02T17:38:12;1.98;;;1.23;;
18263;SDS011;9258;48.668;9.172;2022-09-02T17:41:15;5.13;;;1.30;;
18263;SDS011;9258;48.668;9.172;2022-09-02T17:44:34;3.20;;;1.10;;
18263;SDS011;9258;48.668;9.172;2022-09-02T17:47:37;1.10;;;0.90;;
18263;SDS011;9258;48.668;9.172;2022-09-02T17:50:38;3.72;;;0.90;;
18263;SDS011;9258;48.668;9.172;2022-09-02T17:53:40;1.52;;;1.10;;
18263;SDS011;9258;48.668;9.172;2022-09-02T17:57:02;4.40;;;1.55;;
18263;SDS011;9258;48.668;9.172;2022-09-02T18:00:09;1.83;;;1.10;;
18263;SDS011;9258;48.668;9.172;2022-09-02T18:03:33;1.52;;;1.20;;
18263;SDS011;9258;48.668;9.172;2022-09-02T18:06:44;1.27;;;1.08;;
18263;SDS011;9258;48.668;9.172;2022-09-02T18:09:50;2.63;;;1.75;;
18263;SDS011;9258;48.668;9.172;2022-09-02T18:12:53;1.92;;;1.42;;
18263;SDS011;9258;48.668;9.172;2022-09-02T18:15:58;2.67;;;1.20;;
18263;SDS011;9258;48.668;9.172;2022-09-02T18:19:12;2.10;;;1.30;;
18263;SDS011;9258;48.668;9.172;2022-09-02T18:22:35;2.30;;;1.27;;
18263;SDS011;9258;48.668;9.172;2022-09-02T18:25:48;3.70;;;1.45;;
18263;SDS011;9258;48.668;9.172;2022-09-02T18:29:00;1.77;;;1.27;;
18263;SDS011;9258;48.668;9.172;2022-09-02T18:32:13;2.03;;;1.20;;
18263;SDS011;9258;48.668;9.172;2022-09-02T18:35:25;1.55;;;1.35;;
18263;SDS011;9258;48.668;9.172;2022-09-02T18:38:37;1.88;;;1.20;;
18263;SDS011;9258;48.668;9.172;2022-09-02T18:41:48;2.55;;;1.10;;
18263;SDS011;9258;48.668;9.172;2022-09-02T18:45:04;2.00;;;1.30;;
18263;SDS011;9258;48.668;9.172;2022-09-02T18:48:09;2.85;;;1.02;;
18263;SDS011;9258;48.668;9.172;2022-09-02T18:51:14;2.30;;;1.17;;
18263;SDS011;9258;48.668;9.172;2022-09-02T18:54:24;1.98;;;1.20;;
18263;SDS011;9258;48.668;9.172;2022-09-02T18:57:30;1.20;;;1.10;;
18263;SDS011;9258;48.668;9.172;2022-09-02T19:00:42;1.38;;;1.15;;
18263;SDS011;9258;48.668;9.172;2022-09-02T19:03:47;2.30;;;1.30;;
18263;SDS011;9258;48.668;9.172;2022-09-02T19:06:48;2.50;;;1.10;;
18263;SDS011;9258;48.668;9.172;2022-09-02T19:09:50;1.40;;;1.30;;
18263;SDS011;9258;48.668;9.172;2022-09-02T19:12:50;2.22;;;1.40;;
18263;SDS011;9258;48.668;9.172;2022-09-02T19:15:54;1.70;;;1.35;;
18263;SDS011;9258;48.668;9.172;2022-09-02T19:18:56;3.08;;;1.50;;